John P. Tully — CG2958 — position and weather

sailwx.info

Track history (hours):
 
Tides and Currents Weather Stations Pressure Air Temp Water Temp Dewpoint Dewpoint Depression Visibility Wind Speed Wind Dir Waves Ship Positions

Oceanographic research ship John P. Tully (Canada)

Detailed information on ship capabilities available from University of Delaware's Ocean Information Center.

Last reported at 2020-Jan-17 16:03 UTC. Time now 2020-Jan-21 23:28 UTC.
Position N 52°35' W 128°46'.

Length 68.9 m; beam 14.5 m; draft 4.5 m.

Type: SAR. MMSI: 316114000.

Date/timePositionNaut miles runAvg speedWind from/ knotsBaromVisibWave heightAir tempDewpointWater temp
2020-Jan-17 16:03N 52°35' W 128°46'1 0.9
2020-Jan-17 15:00N 52°35' W 128°48'74 1.5
2020-Jan-15 13:33N 53°32' W 130°06'3 3.0
2020-Jan-15 12:25N 53°33' W 130°11'3 2.8
2020-Jan-15 11:30N 53°35' W 130°15'7 3.5
2020-Jan-15 09:29N 53°38' W 130°25'7 7.2
2020-Jan-15 08:30N 53°43' W 130°34'21 5.9
2020-Jan-15 05:01N 54°03' W 130°44'14 9.4
2020-Jan-15 03:30N 54°10' W 130°23'9 9.2
2020-Jan-15 02:31N 54°19' W 130°22'0 0.3
2020-Jan-15 01:21N 54°19' W 130°22'0 0.0
2020-Jan-14 23:51N 54°19' W 130°22'0 0.0
2020-Jan-14 21:27N 54°19' W 130°22'0 0.0
2020-Jan-14 21:00N 54°19' W 130°22'0 0.0
2020-Jan-14 19:27N 54°19' W 130°22'0 0.0
2020-Jan-14 18:27N 54°19' W 130°22'0 0.1
2020-Jan-14 18:00N 54°19' W 130°22'0 0.0
2020-Jan-14 17:24N 54°19' W 130°22'0 0.0
2020-Jan-14 16:54N 54°19' W 130°22'0 0.0
2020-Jan-14 15:00N 54°19' W 130°22'0 0.0
2020-Jan-14 14:30N 54°19' W 130°22'0 0.0
2020-Jan-14 13:30N 54°19' W 130°22'0 0.0
2020-Jan-14 12:00N 54°19' W 130°22'0 0.1
2020-Jan-14 11:30N 54°19' W 130°22'0 0.1
2020-Jan-14 11:00N 54°19' W 130°22'0 0.0
2020-Jan-14 10:00N 54°19' W 130°22'0 0.0
2020-Jan-14 07:21N 54°19' W 130°22'0 0.0
2020-Jan-14 05:57N 54°19' W 130°22'0 0.0
2020-Jan-14 05:30N 54°19' W 130°22'2 0.4
2020-Jan-14 01:00N 54°20' W 130°19'1 0.3
2020-Jan-13 20:29N 54°20' W 130°17'0 0.0
2020-Jan-13 17:59N 54°20' W 130°17'0 0.0
2020-Jan-13 16:59N 54°20' W 130°17'0 0.0
2020-Jan-13 11:59N 54°20' W 130°17'0 0.0
2020-Jan-13 10:59N 54°20' W 130°17'0 0.0
2020-Jan-13 07:56N 54°20' W 130°17'0 0.0
2020-Jan-13 06:29N 54°20' W 130°17'0 0.0
2020-Jan-13 04:59N 54°20' W 130°17'0 0.0
2020-Jan-13 04:29N 54°20' W 130°17'0 0.0
2020-Jan-13 03:59N 54°20' W 130°17'0 0.0
2020-Jan-13 03:29N 54°20' W 130°17'0 0.0
2020-Jan-13 01:59N 54°20' W 130°17'0 0.0
2020-Jan-13 01:29N 54°20' W 130°17'0 0.0
2020-Jan-13 00:29N 54°20' W 130°17'3 0.9
2020-Jan-12 20:30N 54°18' W 130°22'18 9.2
2020-Jan-12 18:30N 54°00' W 130°13'1111.0
2020-Jan-12 17:28N 53°49' W 130°19'2010.5
2020-Jan-12 15:35N 53°32' W 130°03'  
Track history (hours):
 
Tides and Currents Weather Stations Pressure Air Temp Water Temp Dewpoint Dewpoint Depression Visibility Wind Speed Wind Dir Waves Ship Positions

Oceanographic research ship John P. Tully (Canada)

Detailed information on ship capabilities available from University of Delaware's Ocean Information Center.

Last reported at 2020-Jan-17 16:03 UTC. Time now 2020-Jan-21 23:28 UTC.
Position N 52°35' W 128°46'.

Length 68.9 m; beam 14.5 m; draft 4.5 m.

Type: SAR. MMSI: 316114000.

Date/timePositionNaut miles runAvg speedWind from/ knotsBaromVisibWave heightAir tempDewpointWater temp
2020-Jan-17 16:03N 52°35' W 128°46'1 0.9
2020-Jan-17 15:00N 52°35' W 128°48'74 1.5
2020-Jan-15 13:33N 53°32' W 130°06'3 3.0
2020-Jan-15 12:25N 53°33' W 130°11'3 2.8
2020-Jan-15 11:30N 53°35' W 130°15'7 3.5
2020-Jan-15 09:29N 53°38' W 130°25'7 7.2
2020-Jan-15 08:30N 53°43' W 130°34'21 5.9
2020-Jan-15 05:01N 54°03' W 130°44'14 9.4
2020-Jan-15 03:30N 54°10' W 130°23'9 9.2
2020-Jan-15 02:31N 54°19' W 130°22'0 0.3
2020-Jan-15 01:21N 54°19' W 130°22'0 0.0
2020-Jan-14 23:51N 54°19' W 130°22'0 0.0
2020-Jan-14 21:27N 54°19' W 130°22'0 0.0
2020-Jan-14 21:00N 54°19' W 130°22'0 0.0
2020-Jan-14 19:27N 54°19' W 130°22'0 0.0
2020-Jan-14 18:27N 54°19' W 130°22'0 0.1
2020-Jan-14 18:00N 54°19' W 130°22'0 0.0
2020-Jan-14 17:24N 54°19' W 130°22'0 0.0
2020-Jan-14 16:54N 54°19' W 130°22'0 0.0
2020-Jan-14 15:00N 54°19' W 130°22'0 0.0
2020-Jan-14 14:30N 54°19' W 130°22'0 0.0
2020-Jan-14 13:30N 54°19' W 130°22'0 0.0
2020-Jan-14 12:00N 54°19' W 130°22'0 0.1
2020-Jan-14 11:30N 54°19' W 130°22'0 0.1
2020-Jan-14 11:00N 54°19' W 130°22'0 0.0
2020-Jan-14 10:00N 54°19' W 130°22'0 0.0
2020-Jan-14 07:21N 54°19' W 130°22'0 0.0
2020-Jan-14 05:57N 54°19' W 130°22'0 0.0
2020-Jan-14 05:30N 54°19' W 130°22'2 0.4
2020-Jan-14 01:00N 54°20' W 130°19'1 0.3
2020-Jan-13 20:29N 54°20' W 130°17'0 0.0
2020-Jan-13 17:59N 54°20' W 130°17'0 0.0
2020-Jan-13 16:59N 54°20' W 130°17'0 0.0
2020-Jan-13 11:59N 54°20' W 130°17'0 0.0
2020-Jan-13 10:59N 54°20' W 130°17'0 0.0
2020-Jan-13 07:56N 54°20' W 130°17'0 0.0
2020-Jan-13 06:29N 54°20' W 130°17'0 0.0
2020-Jan-13 04:59N 54°20' W 130°17'0 0.0
2020-Jan-13 04:29N 54°20' W 130°17'0 0.0
2020-Jan-13 03:59N 54°20' W 130°17'0 0.0
2020-Jan-13 03:29N 54°20' W 130°17'0 0.0
2020-Jan-13 01:59N 54°20' W 130°17'0 0.0
2020-Jan-13 01:29N 54°20' W 130°17'0 0.0
2020-Jan-13 00:29N 54°20' W 130°17'3 0.9
2020-Jan-12 20:30N 54°18' W 130°22'18 9.2
2020-Jan-12 18:30N 54°00' W 130°13'1111.0
2020-Jan-12 17:28N 53°49' W 130°19'2010.5
2020-Jan-12 15:35N 53°32' W 130°03'  

Dump ship's entire track history